createdAt,value
2019-02-23T00:00:17.926Z,1005.24
2019-02-23T00:01:17.886Z,1005.32
2019-02-23T00:02:17.916Z,1005.32
2019-02-23T00:03:17.864Z,1005.30
2019-02-23T00:04:17.907Z,1005.28
2019-02-23T00:05:18.034Z,1005.25
2019-02-23T00:06:29.043Z,1005.23
2019-02-23T00:07:18.831Z,1005.19
2019-02-23T00:08:18.905Z,1005.19
2019-02-23T00:09:17.845Z,1005.16
2019-02-23T00:10:17.776Z,1005.08
2019-02-23T00:11:17.893Z,1005.05
2019-02-23T00:12:17.770Z,1005.02
2019-02-23T00:13:17.815Z,1004.94
2019-02-23T00:14:17.788Z,1004.95
2019-02-23T00:15:17.727Z,1005.00
2019-02-23T00:16:18.740Z,1005.03
2019-02-23T00:17:17.726Z,1005.07
2019-02-23T00:18:17.760Z,1005.12
2019-02-23T00:19:24.785Z,1005.19
2019-02-23T00:20:18.709Z,1005.29
2019-02-23T00:21:17.661Z,1005.27
2019-02-23T00:22:17.772Z,1005.31
2019-02-23T00:23:17.630Z,1005.26
2019-02-23T00:24:17.662Z,1005.22
2019-02-23T00:25:17.612Z,1005.20
2019-02-23T00:26:17.713Z,1005.24
2019-02-23T00:27:17.623Z,1005.22
2019-02-23T00:28:17.633Z,1005.17
2019-02-23T00:29:17.569Z,1005.20
2019-02-23T00:30:17.557Z,1005.19
2019-02-23T00:31:17.643Z,1005.20
2019-02-23T00:32:17.552Z,1005.23
2019-02-23T00:33:17.569Z,1005.27
2019-02-23T00:34:17.509Z,1005.27
2019-02-23T00:35:17.507Z,1005.26
2019-02-23T00:36:17.579Z,1005.24
2019-02-23T00:37:17.487Z,1005.25
2019-02-23T00:38:17.515Z,1005.27
2019-02-23T00:39:17.458Z,1005.23
2019-02-23T00:40:17.448Z,1005.26
2019-02-23T00:41:17.440Z,1005.24
2019-02-23T00:42:17.539Z,1005.25
2019-02-23T00:43:17.408Z,1005.21
2019-02-23T00:44:17.417Z,1005.17
2019-02-23T00:45:17.389Z,1005.20
2019-02-23T00:46:17.375Z,1005.14
2019-02-23T00:47:17.482Z,1005.08
2019-02-23T00:48:17.335Z,1005.13
2019-02-23T00:49:17.368Z,1005.11
2019-02-23T00:50:17.328Z,1005.12
2019-02-23T00:51:17.318Z,1005.11
2019-02-23T00:52:17.425Z,1005.13
2019-02-23T00:53:17.301Z,1005.11
2019-02-23T00:54:17.305Z,1005.15
2019-02-23T00:55:17.275Z,1005.17
2019-02-23T00:56:17.261Z,1005.12
2019-02-23T00:57:17.268Z,1005.11
2019-02-23T00:58:17.273Z,1005.08
2019-02-23T00:59:17.224Z,1005.06
2019-02-23T01:00:17.318Z,1005.15
2019-02-23T01:01:17.196Z,1005.16
2019-02-23T01:02:17.287Z,1005.20
2019-02-23T01:03:17.180Z,1005.29
2019-02-23T01:04:17.281Z,1005.32
2019-02-23T01:05:17.157Z,1005.40
2019-02-23T01:06:17.219Z,1005.36
2019-02-23T01:07:17.149Z,1005.35
2019-02-23T01:08:17.149Z,1005.36
2019-02-23T01:09:17.110Z,1005.30
2019-02-23T01:10:19.468Z,1005.25
2019-02-23T01:11:17.091Z,1005.25
2019-02-23T01:12:17.099Z,1005.23
2019-02-23T01:13:17.092Z,1005.25
2019-02-23T01:14:17.063Z,1005.21
2019-02-23T01:15:17.124Z,1005.14
2019-02-23T01:16:17.013Z,1005.13
2019-02-23T01:17:17.037Z,1005.12
2019-02-23T01:18:17.031Z,1005.12
2019-02-23T01:19:16.995Z,1005.08
2019-02-23T01:20:17.069Z,1005.15
2019-02-23T01:21:16.978Z,1005.18
2019-02-23T01:22:16.985Z,1005.18
2019-02-23T01:23:16.953Z,1005.19
2019-02-23T01:24:17.041Z,1005.24
2019-02-23T01:25:16.928Z,1005.17
2019-02-23T01:26:16.976Z,1005.16
2019-02-23T01:27:16.920Z,1005.16
2019-02-23T01:28:16.912Z,1005.17
2019-02-23T01:29:16.894Z,1005.18
2019-02-23T01:30:16.943Z,1005.16
2019-02-23T01:31:16.869Z,1005.18
2019-02-23T01:32:16.935Z,1005.16
2019-02-23T01:33:16.834Z,1005.15
2019-02-23T01:34:16.916Z,1005.10
2019-02-23T01:35:16.816Z,1005.06
2019-02-23T01:36:16.857Z,1005.12
2019-02-23T01:37:16.820Z,1005.13
2019-02-23T01:38:16.779Z,1005.18
2019-02-23T01:39:16.779Z,1005.16
2019-02-23T01:40:18.869Z,1005.21
2019-02-23T01:41:16.750Z,1005.19
2019-02-23T01:42:16.815Z,1005.20
2019-02-23T01:43:16.833Z,1005.22
2019-02-23T01:44:16.714Z,1005.16
2019-02-23T01:45:16.771Z,1005.18
2019-02-23T01:46:16.695Z,1005.15
2019-02-23T01:47:16.705Z,1005.18
2019-02-23T01:48:16.688Z,1005.21
2019-02-23T01:49:31.375Z,1005.24
2019-02-23T01:50:16.646Z,1005.22
2019-02-23T01:51:16.679Z,1005.25
2019-02-23T01:52:16.617Z,1005.25
2019-02-23T01:53:16.676Z,1005.28
2019-02-23T01:54:16.598Z,1005.31
2019-02-23T01:55:16.648Z,1005.33
2019-02-23T01:56:16.599Z,1005.40
2019-02-23T01:57:16.697Z,1005.38
2019-02-23T01:58:16.580Z,1005.45
2019-02-23T01:59:16.550Z,1005.39
2019-02-23T02:00:16.602Z,1005.44
2019-02-23T02:01:16.528Z,1005.44
2019-02-23T02:02:18.574Z,1005.51
2019-02-23T02:03:16.513Z,1005.46
2019-02-23T02:04:16.489Z,1005.46
2019-02-23T02:05:16.474Z,1005.43
2019-02-23T02:06:17.529Z,1005.46
2019-02-23T02:07:16.463Z,1005.47
2019-02-23T02:08:16.484Z,1005.48
2019-02-23T02:09:16.507Z,1005.49
2019-02-23T02:10:16.418Z,1005.43
2019-02-23T02:11:16.445Z,1005.47
2019-02-23T02:12:16.400Z,1005.42
2019-02-23T02:13:16.432Z,1005.38
2019-02-23T02:14:16.371Z,1005.35
2019-02-23T02:15:16.363Z,1005.28
2019-02-23T02:16:16.381Z,1005.26
2019-02-23T02:17:16.338Z,1005.23
2019-02-23T02:18:16.364Z,1005.26
2019-02-23T02:19:16.328Z,1005.18
2019-02-23T02:20:16.306Z,1005.17
2019-02-23T02:21:16.320Z,1005.15
2019-02-23T02:22:17.333Z,1005.21
2019-02-23T02:23:16.280Z,1005.21
2019-02-23T02:24:18.378Z,1005.17
2019-02-23T02:25:16.239Z,1005.15
2019-02-23T02:26:16.283Z,1005.12
2019-02-23T02:27:16.222Z,1005.11
2019-02-23T02:28:16.239Z,1005.12
2019-02-23T02:29:16.190Z,1005.10
2019-02-23T02:30:16.189Z,1005.10
2019-02-23T02:31:16.185Z,1005.11
2019-02-23T02:32:16.273Z,1005.09
2019-02-23T02:33:16.172Z,1005.09
2019-02-23T02:34:16.209Z,1005.12
2019-02-23T02:35:16.135Z,1005.12
2019-02-23T02:36:16.156Z,1005.09
2019-02-23T02:37:16.105Z,1005.07
2019-02-23T02:38:16.237Z,1005.03
2019-02-23T02:39:16.096Z,1005.03
2019-02-23T02:40:16.127Z,1004.99
2019-02-23T02:41:16.067Z,1005.02
2019-02-23T02:42:16.158Z,1005.05
2019-02-23T02:43:16.059Z,1005.06
2019-02-23T02:44:16.098Z,1005.04
2019-02-23T02:45:16.028Z,1005.10
2019-02-23T02:46:16.018Z,1005.16
2019-02-23T02:47:16.005Z,1005.19
2019-02-23T02:48:16.114Z,1005.15
2019-02-23T02:49:15.976Z,1005.14
2019-02-23T02:50:24.339Z,1005.17
2019-02-23T02:51:16.959Z,1005.19
2019-02-23T02:52:17.061Z,1005.19
2019-02-23T02:53:15.946Z,1005.19
2019-02-23T02:54:15.966Z,1005.17
2019-02-23T02:55:15.908Z,1005.17
2019-02-23T02:56:15.898Z,1005.08
2019-02-23T02:57:15.894Z,1005.08
2019-02-23T02:58:16.908Z,1005.05
2019-02-23T02:59:15.864Z,1005.08
2019-02-23T03:00:15.878Z,1005.04
2019-02-23T03:01:15.835Z,1004.99
2019-02-23T03:02:16.932Z,1005.00
2019-02-23T03:03:15.827Z,1005.00
2019-02-23T03:04:16.871Z,1005.00
2019-02-23T03:05:15.788Z,1005.00
2019-02-23T03:06:15.886Z,1005.00
2019-02-23T03:07:15.775Z,1004.97
2019-02-23T03:08:16.788Z,1004.92
2019-02-23T03:09:15.745Z,1004.88
2019-02-23T03:10:15.759Z,1004.86
2019-02-23T03:11:15.718Z,1004.81
2019-02-23T03:12:15.717Z,1004.82
2019-02-23T03:13:17.747Z,1004.77
2019-02-23T03:14:15.693Z,1004.71
2019-02-23T03:15:16.712Z,1004.65
2019-02-23T03:16:15.681Z,1004.58
2019-02-23T03:17:15.650Z,1004.53
2019-02-23T03:18:15.673Z,1004.54
2019-02-23T03:19:15.674Z,1004.55
2019-02-23T03:20:15.632Z,1004.50
2019-02-23T03:21:16.732Z,1004.55
2019-02-23T03:22:15.613Z,1004.47
2019-02-23T03:23:15.605Z,1004.42
2019-02-23T03:24:15.605Z,1004.45
2019-02-23T03:25:15.569Z,1004.45
2019-02-23T03:26:15.645Z,1004.45
2019-02-23T03:27:15.555Z,1004.50
2019-02-23T03:28:15.555Z,1004.54
2019-02-23T03:29:15.555Z,1004.49
2019-02-23T03:30:15.519Z,1004.50
2019-02-23T03:31:15.593Z,1004.46
2019-02-23T03:32:15.499Z,1004.42
2019-02-23T03:33:15.501Z,1004.42
2019-02-23T03:34:15.478Z,1004.52
2019-02-23T03:35:15.554Z,1004.49
2019-02-23T03:36:15.445Z,1004.55
2019-02-23T03:37:15.483Z,1004.52
2019-02-23T03:38:15.438Z,1004.58
2019-02-23T03:39:15.526Z,1004.60
2019-02-23T03:40:15.394Z,1004.56
2019-02-23T03:41:15.456Z,1004.54
2019-02-23T03:42:15.378Z,1004.53
2019-02-23T03:43:15.436Z,1004.54
2019-02-23T03:44:15.349Z,1004.55
2019-02-23T03:45:15.519Z,1004.57
2019-02-23T03:46:15.332Z,1004.55
2019-02-23T03:47:15.374Z,1004.56
2019-02-23T03:48:15.341Z,1004.54
2019-02-23T03:49:15.294Z,1004.47
2019-02-23T03:50:15.284Z,1004.43
2019-02-23T03:51:17.385Z,1004.41
2019-02-23T03:52:15.252Z,1004.41
2019-02-23T03:53:15.274Z,1004.39
2019-02-23T03:54:15.284Z,1004.37
2019-02-23T03:55:15.224Z,1004.32
2019-02-23T03:56:21.936Z,1004.32
2019-02-23T03:57:15.204Z,1004.27
2019-02-23T03:58:16.237Z,1004.35
2019-02-23T03:59:15.196Z,1004.34
2019-02-23T04:00:15.257Z,1004.33
2019-02-23T04:01:15.158Z,1004.30
2019-02-23T04:02:15.182Z,1004.36
2019-02-23T04:03:15.149Z,1004.34
2019-02-23T04:04:15.174Z,1004.38
2019-02-23T04:05:15.111Z,1004.39
2019-02-23T04:06:15.172Z,1004.39
2019-02-23T04:07:15.097Z,1004.40
2019-02-23T04:08:15.199Z,1004.40
2019-02-23T04:09:15.090Z,1004.42
2019-02-23T04:10:15.062Z,1004.48
2019-02-23T04:11:15.093Z,1004.50
2019-02-23T04:12:15.042Z,1004.48
2019-02-23T04:13:15.142Z,1004.48
2019-02-23T04:14:15.027Z,1004.51
2019-02-23T04:15:15.006Z,1004.50
2019-02-23T04:16:14.989Z,1004.52
2019-02-23T04:17:15.003Z,1004.55
2019-02-23T04:18:14.976Z,1004.52
2019-02-23T04:19:14.990Z,1004.46
2019-02-23T04:20:15.013Z,1004.44
2019-02-23T04:21:14.922Z,1004.45
2019-02-23T04:22:14.947Z,1004.44
2019-02-23T04:23:14.901Z,1004.44
2019-02-23T04:24:16.965Z,1004.38
2019-02-23T04:25:14.884Z,1004.38
2019-02-23T04:26:14.916Z,1004.34
2019-02-23T04:27:14.856Z,1004.34
2019-02-23T04:28:14.958Z,1004.31
2019-02-23T04:29:14.868Z,1004.31
2019-02-23T04:30:14.900Z,1004.29
2019-02-23T04:31:14.838Z,1004.20
2019-02-23T04:32:14.951Z,1004.26
2019-02-23T04:33:14.801Z,1004.26
2019-02-23T04:34:14.899Z,1004.19
2019-02-23T04:35:14.771Z,1004.24
2019-02-23T04:36:14.780Z,1004.20
2019-02-23T04:37:14.881Z,1004.20
2019-02-23T04:38:14.742Z,1004.21
2019-02-23T04:39:14.842Z,1004.17
2019-02-23T04:40:14.713Z,1004.15
2019-02-23T04:41:15.215Z,1004.13
2019-02-23T04:42:14.695Z,1004.13
2019-02-23T04:43:14.773Z,1004.06
2019-02-23T04:44:14.684Z,1004.07
2019-02-23T04:45:14.707Z,1004.09
2019-02-23T04:46:14.648Z,1004.11
2019-02-23T04:47:14.747Z,1004.11
2019-02-23T04:48:14.642Z,1004.10
2019-02-23T04:49:14.729Z,1004.13
2019-02-23T04:50:14.612Z,1004.21
2019-02-23T04:51:14.893Z,1004.26
2019-02-23T04:52:14.585Z,1004.23
2019-02-23T04:53:14.658Z,1004.25
2019-02-23T04:54:14.587Z,1004.18
2019-02-23T04:55:14.588Z,1004.13
2019-02-23T04:56:14.544Z,1004.12
2019-02-23T04:57:14.533Z,1004.14
2019-02-23T04:58:14.588Z,1004.16
2019-02-23T04:59:14.529Z,1004.17
2019-02-23T05:00:14.549Z,1004.10
2019-02-23T05:01:14.495Z,1004.18
2019-02-23T05:02:14.467Z,1004.21
2019-02-23T05:03:14.514Z,1004.18
2019-02-23T05:04:14.537Z,1004.20
2019-02-23T05:05:14.438Z,1004.21
2019-02-23T05:06:14.534Z,1004.25
2019-02-23T05:07:14.412Z,1004.24
2019-02-23T05:08:14.472Z,1004.26
2019-02-23T05:09:14.408Z,1004.28
2019-02-23T05:10:14.409Z,1004.28
2019-02-23T05:11:14.364Z,1004.29
2019-02-23T05:12:14.447Z,1004.30
2019-02-23T05:13:14.347Z,1004.29
2019-02-23T05:14:14.426Z,1004.30
2019-02-23T05:15:14.324Z,1004.27
2019-02-23T05:16:14.432Z,1004.24
2019-02-23T05:17:14.296Z,1004.31
2019-02-23T05:18:14.287Z,1004.29
2019-02-23T05:19:14.357Z,1004.25
2019-02-23T05:20:14.278Z,1004.26
2019-02-23T05:21:25.957Z,1004.23
2019-02-23T05:22:15.248Z,1004.31
2019-02-23T05:23:14.230Z,1004.27
2019-02-23T05:24:14.250Z,1004.24
2019-02-23T05:25:15.243Z,1004.24
2019-02-23T05:26:14.201Z,1004.23
2019-02-23T05:27:16.328Z,1004.20
2019-02-23T05:28:14.237Z,1004.19
2019-02-23T05:29:14.185Z,1004.26
2019-02-23T05:30:14.268Z,1004.20
2019-02-23T05:31:14.150Z,1004.21
2019-02-23T05:32:14.196Z,1004.19
2019-02-23T05:33:14.132Z,1004.17
2019-02-23T05:34:14.176Z,1004.19
2019-02-23T05:35:14.114Z,1004.24
2019-02-23T05:36:14.170Z,1004.17
2019-02-23T05:37:14.081Z,1004.23
2019-02-23T05:38:14.103Z,1004.21
2019-02-23T05:39:14.086Z,1004.20
2019-02-23T05:40:14.140Z,1004.19
2019-02-23T05:41:14.040Z,1004.15
2019-02-23T05:42:14.075Z,1004.16
2019-02-23T05:43:14.006Z,1004.19
2019-02-23T05:44:14.015Z,1004.19
2019-02-23T05:45:14.084Z,1004.24
2019-02-23T05:46:13.977Z,1004.27
2019-02-23T05:47:14.015Z,1004.22
2019-02-23T05:48:13.956Z,1004.31
2019-02-23T05:49:13.955Z,1004.26
2019-02-23T05:50:13.927Z,1004.32
2019-02-23T05:51:13.989Z,1004.32
2019-02-23T05:52:13.910Z,1004.41
2019-02-23T05:53:13.920Z,1004.37
2019-02-23T05:54:13.919Z,1004.42
2019-02-23T05:55:13.962Z,1004.49
2019-02-23T05:56:16.308Z,1004.50
2019-02-23T05:57:13.890Z,1004.47
2019-02-23T05:58:13.844Z,1004.48
2019-02-23T05:59:13.944Z,1004.45
2019-02-23T06:00:13.844Z,1004.42
2019-02-23T06:01:13.864Z,1004.40
2019-02-23T06:02:13.802Z,1004.41
2019-02-23T06:03:13.805Z,1004.38
2019-02-23T06:04:13.776Z,1004.35
2019-02-23T06:05:13.786Z,1004.34
2019-02-23T06:06:13.748Z,1004.27
2019-02-23T06:07:13.770Z,1004.34
2019-02-23T06:08:13.767Z,1004.25
2019-02-23T06:09:13.808Z,1004.32
2019-02-23T06:10:13.709Z,1004.31
2019-02-23T06:11:13.766Z,1004.31
2019-02-23T06:12:13.692Z,1004.28
2019-02-23T06:13:14.702Z,1004.34
2019-02-23T06:14:13.674Z,1004.29
2019-02-23T06:15:13.772Z,1004.35
2019-02-23T06:16:13.642Z,1004.33
2019-02-23T06:17:13.653Z,1004.41
2019-02-23T06:18:13.615Z,1004.41
2019-02-23T06:19:13.686Z,1004.47
2019-02-23T06:20:13.605Z,1004.44
2019-02-23T06:21:13.592Z,1004.48
2019-02-23T06:22:13.600Z,1004.50
2019-02-23T06:23:13.562Z,1004.51
2019-02-23T06:24:13.628Z,1004.54
2019-02-23T06:25:13.581Z,1004.58
2019-02-23T06:26:13.531Z,1004.56
2019-02-23T06:27:13.527Z,1004.54
2019-02-23T06:28:13.602Z,1004.55
2019-02-23T06:29:13.492Z,1004.47
2019-02-23T06:30:13.582Z,1004.46
2019-02-23T06:31:13.508Z,1004.41
2019-02-23T06:32:13.477Z,1004.48
2019-02-23T06:33:13.533Z,1004.49
2019-02-23T06:34:16.537Z,1004.51
2019-02-23T06:35:13.525Z,1004.53
2019-02-23T06:36:13.447Z,1004.53
2019-02-23T06:37:13.413Z,1004.61
2019-02-23T06:38:13.477Z,1004.58
2019-02-23T06:39:13.388Z,1004.61
2019-02-23T06:40:13.469Z,1004.65
2019-02-23T06:41:13.377Z,1004.66
2019-02-23T06:42:13.458Z,1004.64
2019-02-23T06:43:13.358Z,1004.65
2019-02-23T06:44:13.378Z,1004.67
2019-02-23T06:45:13.348Z,1004.67
2019-02-23T06:46:13.428Z,1004.68
2019-02-23T06:47:14.319Z,1004.72
2019-02-23T06:48:13.294Z,1004.79
2019-02-23T06:49:14.350Z,1004.76
2019-02-23T06:50:13.302Z,1004.72
2019-02-23T06:51:13.371Z,1004.72
2019-02-23T06:52:13.336Z,1004.72
2019-02-23T06:53:13.241Z,1004.76
2019-02-23T06:54:13.271Z,1004.78
2019-02-23T06:55:13.240Z,1004.85
2019-02-23T06:56:13.297Z,1004.94
2019-02-23T06:57:13.189Z,1004.89
2019-02-23T06:58:13.240Z,1004.93
2019-02-23T06:59:13.173Z,1004.94
2019-02-23T07:00:13.211Z,1004.99
2019-02-23T07:01:13.145Z,1005.00
2019-02-23T07:02:13.218Z,1004.98
2019-02-23T07:03:13.125Z,1004.99
2019-02-23T07:04:13.152Z,1005.02
2019-02-23T07:05:13.119Z,1005.04
2019-02-23T07:06:13.177Z,1005.06
2019-02-23T07:07:13.065Z,1005.12
2019-02-23T07:08:13.067Z,1005.10
2019-02-23T07:09:13.087Z,1005.05
2019-02-23T07:10:13.069Z,1005.06
2019-02-23T07:11:13.119Z,1005.07
2019-02-23T07:12:13.039Z,1005.08
2019-02-23T07:13:13.022Z,1005.09
2019-02-23T07:14:12.989Z,1005.15
2019-02-23T07:15:13.036Z,1005.17
2019-02-23T07:16:12.981Z,1005.20
2019-02-23T07:17:13.021Z,1005.27
2019-02-23T07:18:12.967Z,1005.27
2019-02-23T07:19:12.970Z,1005.29
2019-02-23T07:20:12.955Z,1005.31
2019-02-23T07:21:14.025Z,1005.36
2019-02-23T07:22:15.831Z,1005.39
2019-02-23T07:23:13.962Z,1005.36
2019-02-23T07:24:12.896Z,1005.37
2019-02-23T07:25:13.954Z,1005.38
2019-02-23T07:26:12.879Z,1005.50
2019-02-23T07:27:12.902Z,1005.43
2019-02-23T07:28:12.846Z,1005.45
2019-02-23T07:29:12.830Z,1005.51
2019-02-23T07:30:12.964Z,1005.48
2019-02-23T07:31:12.815Z,1005.52
2019-02-23T07:32:13.872Z,1005.52
2019-02-23T07:33:12.793Z,1005.57
2019-02-23T07:34:12.811Z,1005.57
2019-02-23T07:35:12.782Z,1005.54
2019-02-23T07:36:12.819Z,1005.59
2019-02-23T07:37:12.739Z,1005.54
2019-02-23T07:38:12.768Z,1005.58
2019-02-23T07:39:12.736Z,1005.57
2019-02-23T07:40:12.845Z,1005.59
2019-02-23T07:41:12.711Z,1005.59
2019-02-23T07:42:12.729Z,1005.56
2019-02-23T07:43:12.679Z,1005.50
2019-02-23T07:44:12.770Z,1005.47
2019-02-23T07:45:12.691Z,1005.44
2019-02-23T07:46:19.450Z,1005.44
2019-02-23T07:47:12.722Z,1005.45
2019-02-23T07:48:12.731Z,1005.44
2019-02-23T07:49:12.623Z,1005.54
2019-02-23T07:50:12.624Z,1005.60
2019-02-23T07:51:12.643Z,1005.65
2019-02-23T07:52:12.592Z,1005.70
2019-02-23T07:53:12.675Z,1005.62
2019-02-23T07:54:12.573Z,1005.58
2019-02-23T07:55:12.559Z,1005.53
2019-02-23T07:56:12.544Z,1005.59
2019-02-23T07:57:13.567Z,1005.58
2019-02-23T07:58:12.528Z,1005.64
2019-02-23T07:59:12.580Z,1005.67
2019-02-23T08:00:12.593Z,1005.65
2019-02-23T08:01:12.480Z,1005.68
2019-02-23T08:02:13.510Z,1005.65
2019-02-23T08:03:12.461Z,1005.69
2019-02-23T08:04:12.520Z,1005.70
2019-02-23T08:05:12.465Z,1005.73
2019-02-23T08:06:12.504Z,1005.72
2019-02-23T08:07:12.429Z,1005.76
2019-02-23T08:08:12.495Z,1005.75
2019-02-23T08:09:12.386Z,1005.79
2019-02-23T08:10:13.457Z,1005.76
2019-02-23T08:11:12.384Z,1005.74
2019-02-23T08:12:12.467Z,1005.72
2019-02-23T08:13:12.348Z,1005.73
2019-02-23T08:14:12.399Z,1005.74
2019-02-23T08:15:12.332Z,1005.74
2019-02-23T08:16:12.338Z,1005.72
2019-02-23T08:17:13.333Z,1005.79
2019-02-23T08:18:12.300Z,1005.77
2019-02-23T08:19:13.363Z,1005.79
2019-02-23T08:20:12.276Z,1005.76
2019-02-23T08:21:12.283Z,1005.75
2019-02-23T08:22:13.276Z,1005.70
2019-02-23T08:23:12.245Z,1005.66
2019-02-23T08:24:14.340Z,1005.64
2019-02-23T08:25:12.231Z,1005.66
2019-02-23T08:26:12.226Z,1005.71
2019-02-23T08:27:12.207Z,1005.73
2019-02-23T08:28:12.258Z,1005.73
2019-02-23T08:29:12.175Z,1005.73
2019-02-23T08:30:12.193Z,1005.72
2019-02-23T08:31:13.402Z,1005.67
2019-02-23T08:32:12.158Z,1005.69
2019-02-23T08:33:12.198Z,1005.65
2019-02-23T08:34:12.129Z,1005.69
2019-02-23T08:35:12.139Z,1005.67
2019-02-23T08:36:12.121Z,1005.73
2019-02-23T08:37:12.180Z,1005.79
2019-02-23T08:38:12.091Z,1005.79
2019-02-23T08:39:12.111Z,1005.85
2019-02-23T08:40:12.060Z,1005.83
2019-02-23T08:41:12.091Z,1005.84
2019-02-23T08:42:12.050Z,1005.82
2019-02-23T08:43:12.082Z,1005.82
2019-02-23T08:44:12.023Z,1005.85
2019-02-23T08:45:12.102Z,1005.87
2019-02-23T08:46:12.014Z,1005.92
2019-02-23T08:47:12.044Z,1005.95
2019-02-23T08:48:11.975Z,1005.97
2019-02-23T08:49:11.985Z,1005.96
2019-02-23T08:50:11.953Z,1006.01
2019-02-23T08:51:12.066Z,1006.02
2019-02-23T08:52:11.937Z,1006.02
2019-02-23T08:53:13.997Z,1006.02
2019-02-23T08:54:11.906Z,1006.06
2019-02-23T08:55:11.988Z,1006.04
2019-02-23T08:56:11.883Z,1005.98
2019-02-23T08:57:11.871Z,1005.92
2019-02-23T08:58:11.859Z,1005.96
2019-02-23T08:59:11.969Z,1006.01
2019-02-23T09:00:11.839Z,1006.01
2019-02-23T09:01:11.942Z,1006.01
2019-02-23T09:02:11.880Z,1006.06
2019-02-23T09:03:11.811Z,1006.05
2019-02-23T09:04:11.901Z,1006.04
2019-02-23T09:05:11.780Z,1005.99
2019-02-23T09:06:14.951Z,1005.98
2019-02-23T09:07:11.751Z,1006.07
2019-02-23T09:08:13.923Z,1006.03
2019-02-23T09:09:11.733Z,1006.05
2019-02-23T09:10:11.806Z,1006.03
2019-02-23T09:11:11.723Z,1005.99
2019-02-23T09:12:11.694Z,1005.97
2019-02-23T09:13:11.694Z,1005.91
2019-02-23T09:14:40.535Z,1005.95
2019-02-23T09:15:11.670Z,1005.94
2019-02-23T09:16:11.776Z,1005.94
2019-02-23T09:17:11.680Z,1005.98
2019-02-23T09:18:11.647Z,1005.94
2019-02-23T09:19:11.727Z,1005.91
2019-02-23T09:20:11.618Z,1005.84
2019-02-23T09:21:11.718Z,1005.84
2019-02-23T09:22:11.599Z,1005.87
2019-02-23T09:23:12.619Z,1005.87
2019-02-23T09:24:11.579Z,1005.83
2019-02-23T09:25:11.628Z,1005.77
2019-02-23T09:26:11.573Z,1005.74
2019-02-23T09:27:11.571Z,1005.68
2019-02-23T09:28:11.524Z,1005.68
2019-02-23T09:29:11.596Z,1005.68
2019-02-23T09:30:11.507Z,1005.72
2019-02-23T09:31:11.571Z,1005.75
2019-02-23T09:32:11.483Z,1005.78
2019-02-23T09:33:11.475Z,1005.78
2019-02-23T09:34:11.546Z,1005.69
2019-02-23T09:35:11.446Z,1005.55
2019-02-23T09:36:11.529Z,1005.54
2019-02-23T09:37:11.431Z,1005.55
2019-02-23T09:38:11.405Z,1005.49
2019-02-23T09:39:11.391Z,1005.48
2019-02-23T09:40:11.430Z,1005.45
2019-02-23T09:41:11.394Z,1005.47
2019-02-23T09:42:11.386Z,1005.50
2019-02-23T09:43:11.467Z,1005.54
2019-02-23T09:44:11.344Z,1005.59
2019-02-23T09:45:11.388Z,1005.59
2019-02-23T09:46:11.338Z,1005.68
2019-02-23T09:47:12.347Z,1005.59
2019-02-23T09:48:11.389Z,1005.63
2019-02-23T09:49:11.308Z,1005.60
2019-02-23T09:50:12.359Z,1005.64
2019-02-23T09:51:11.303Z,1005.66
2019-02-23T09:52:11.380Z,1005.70
2019-02-23T09:53:11.633Z,1005.69
2019-02-23T09:54:11.232Z,1005.68
2019-02-23T09:55:11.282Z,1005.71
2019-02-23T09:56:11.222Z,1005.62
2019-02-23T09:57:12.232Z,1005.59
2019-02-23T09:58:11.196Z,1005.55
2019-02-23T09:59:11.243Z,1005.52
2019-02-23T10:00:11.176Z,1005.43
2019-02-23T10:01:11.235Z,1005.47
2019-02-23T10:02:11.145Z,1005.46
2019-02-23T10:03:11.226Z,1005.41
2019-02-23T10:04:11.125Z,1005.40
2019-02-23T10:05:11.157Z,1005.37
2019-02-23T10:06:11.139Z,1005.38
2019-02-23T10:07:12.117Z,1005.34
2019-02-23T10:08:11.078Z,1005.33
2019-02-23T10:09:11.067Z,1005.32
2019-02-23T10:10:11.088Z,1005.31
2019-02-23T10:11:11.048Z,1005.38
2019-02-23T10:12:11.080Z,1005.31
2019-02-23T10:13:11.039Z,1005.24
2019-02-23T10:14:11.021Z,1005.15
2019-02-23T10:15:11.041Z,1005.12
2019-02-23T10:16:10.982Z,1005.13
2019-02-23T10:17:11.003Z,1005.12
2019-02-23T10:18:10.971Z,1005.07
2019-02-23T10:19:10.952Z,1005.12
2019-02-23T10:20:10.941Z,1005.07
2019-02-23T10:21:11.033Z,1005.14
2019-02-23T10:22:10.936Z,1005.14
2019-02-23T10:23:21.577Z,1005.10
2019-02-23T10:24:11.964Z,1005.17
2019-02-23T10:25:10.889Z,1005.20
2019-02-23T10:26:10.965Z,1005.20
2019-02-23T10:27:10.875Z,1005.22
2019-02-23T10:28:10.937Z,1005.17
2019-02-23T10:29:10.877Z,1005.19
2019-02-23T10:30:10.836Z,1005.25
2019-02-23T10:31:10.918Z,1005.27
2019-02-23T10:32:10.817Z,1005.27
2019-02-23T10:33:11.878Z,1005.24
2019-02-23T10:34:10.780Z,1005.24
2019-02-23T10:35:11.810Z,1005.22
2019-02-23T10:36:10.766Z,1005.15
2019-02-23T10:37:11.788Z,1005.10
2019-02-23T10:38:10.730Z,1005.09
2019-02-23T10:39:10.751Z,1005.04
2019-02-23T10:40:10.712Z,1005.04
2019-02-23T10:41:12.741Z,1005.02
2019-02-23T10:42:10.712Z,1005.07
2019-02-23T10:43:10.725Z,1005.08
2019-02-23T10:44:10.683Z,1005.01
2019-02-23T10:45:10.663Z,1005.02
2019-02-23T10:46:10.645Z,1005.06
2019-02-23T10:47:10.754Z,1005.03
2019-02-23T10:48:10.627Z,1005.01
2019-02-23T10:49:10.646Z,1005.01
2019-02-23T10:50:10.708Z,1004.98
2019-02-23T10:51:10.596Z,1004.89
2019-02-23T10:52:10.696Z,1004.88
2019-02-23T10:53:10.588Z,1004.78
2019-02-23T10:54:10.577Z,1004.81
2019-02-23T10:55:10.559Z,1004.73
2019-02-23T10:56:10.618Z,1004.77
2019-02-23T10:57:10.548Z,1004.64
2019-02-23T10:58:10.549Z,1004.63
2019-02-23T10:59:10.510Z,1004.53
2019-02-23T11:00:10.590Z,1004.53
2019-02-23T11:01:10.491Z,1004.50
2019-02-23T11:02:10.573Z,1004.45
2019-02-23T11:03:10.462Z,1004.37
2019-02-23T11:04:10.562Z,1004.35
2019-02-23T11:05:10.444Z,1004.36
2019-02-23T11:06:10.432Z,1004.34
2019-02-23T11:07:10.503Z,1004.35
2019-02-23T11:08:10.403Z,1004.33
2019-02-23T11:09:10.504Z,1004.30
2019-02-23T11:10:10.384Z,1004.31
2019-02-23T11:11:10.375Z,1004.30
2019-02-23T11:12:10.375Z,1004.26
2019-02-23T11:13:10.376Z,1004.26
2019-02-23T11:14:10.336Z,1004.29
2019-02-23T11:15:10.407Z,1004.24
2019-02-23T11:16:10.377Z,1004.28
2019-02-23T11:17:10.327Z,1004.27
2019-02-23T11:18:11.349Z,1004.23
2019-02-23T11:19:10.279Z,1004.23
2019-02-23T11:20:12.289Z,1004.19
2019-02-23T11:21:10.254Z,1004.10
2019-02-23T11:22:10.330Z,1004.09
2019-02-23T11:23:10.231Z,1004.05
2019-02-23T11:24:10.321Z,1004.03
2019-02-23T11:25:10.211Z,1004.01
2019-02-23T11:26:10.251Z,1003.99
2019-02-23T11:27:10.203Z,1004.01
2019-02-23T11:28:10.292Z,1004.01
2019-02-23T11:29:10.163Z,1003.99
2019-02-23T11:30:10.226Z,1004.04
2019-02-23T11:31:10.164Z,1003.99
2019-02-23T11:32:10.167Z,1004.03
2019-02-23T11:33:10.137Z,1003.96
2019-02-23T11:34:10.219Z,1003.96
2019-02-23T11:35:10.097Z,1003.95
2019-02-23T11:36:10.126Z,1003.98
2019-02-23T11:37:10.157Z,1003.91
2019-02-23T11:38:10.047Z,1003.94
2019-02-23T11:39:10.137Z,1003.88
2019-02-23T11:40:10.028Z,1003.90
2019-02-23T11:41:10.079Z,1003.88
2019-02-23T11:42:10.039Z,1003.87
2019-02-23T11:43:10.110Z,1003.86
2019-02-23T11:44:09.986Z,1003.86
2019-02-23T11:45:10.051Z,1003.88
2019-02-23T11:46:09.971Z,1003.88
2019-02-23T11:47:10.033Z,1003.87
2019-02-23T11:48:09.962Z,1003.90
2019-02-23T11:49:10.023Z,1003.88
2019-02-23T11:50:09.933Z,1003.86
2019-02-23T11:51:09.954Z,1003.80
2019-02-23T11:52:09.934Z,1003.85
2019-02-23T11:53:09.906Z,1003.90
2019-02-23T11:54:09.895Z,1003.80
2019-02-23T11:55:09.928Z,1003.85
2019-02-23T11:56:09.871Z,1003.79
2019-02-23T11:57:10.939Z,1003.78
2019-02-23T11:58:09.842Z,1003.74
2019-02-23T11:59:09.897Z,1003.71
2019-02-23T12:00:09.820Z,1003.70
2019-02-23T12:01:09.832Z,1003.71
2019-02-23T12:02:09.818Z,1003.70
2019-02-23T12:03:09.870Z,1003.66
2019-02-23T12:04:09.782Z,1003.65
2019-02-23T12:05:10.830Z,1003.59